Time;durP1;ratioP1;P1;durP2;ratioP2;P2;SDS_P1;SDS_P2;PMS_P1;PMS_P2;Temp;Humidity;BMP_temperature;BMP_pressure;BME280_temperature;BME280_humidity;BME280_pressure;Samples;Min_cycle;Max_cycle;Signal;HPM_P1;HPM_P2
2022/09/22 00:00:26;;;;;;;6.53;3.97;;;9.10;99.90;;;;;;5011901;28;20195;-74
2022/09/22 00:02:56;;;;;;;5.53;3.90;;;9.10;99.90;;;;;;5012190;28;20286;-75
2022/09/22 00:05:23;;;;;;;6.73;4.00;;;9.00;99.90;;;;;;5031557;28;20221;-75
2022/09/22 00:07:51;;;;;;;5.03;3.63;;;9.00;99.90;;;;;;5028540;28;20581;-75
2022/09/22 00:10:20;;;;;;;4.20;3.67;;;9.00;99.90;;;;;;5011640;28;20560;-75
2022/09/22 00:12:47;;;;;;;6.00;4.60;;;9.00;99.90;;;;;;5011372;28;20233;-75
2022/09/22 00:15:14;;;;;;;5.03;4.20;;;8.90;99.90;;;;;;5016061;28;20322;-76
2022/09/22 00:17:41;;;;;;;5.50;4.00;;;8.90;99.90;;;;;;5015559;28;20634;-75
2022/09/22 00:20:12;;;;;;;4.30;3.77;;;8.90;99.90;;;;;;5015407;28;20203;-75
2022/09/22 00:22:39;;;;;;;5.60;4.07;;;8.90;99.90;;;;;;5015570;28;20213;-74
2022/09/22 00:25:08;;;;;;;4.63;3.97;;;8.90;99.90;;;;;;5016219;28;20199;-74
2022/09/22 00:27:36;;;;;;;5.63;4.27;;;8.90;99.90;;;;;;5015419;28;20226;-75
2022/09/22 00:30:03;;;;;;;5.43;4.30;;;8.80;99.90;;;;;;5015404;28;20298;-76
2022/09/22 00:32:30;;;;;;;5.40;4.03;;;8.80;99.90;;;;;;5016064;28;20211;-77
2022/09/22 00:34:57;;;;;;;5.73;3.93;;;8.80;99.90;;;;;;5015218;28;20196;-75
2022/09/22 00:37:24;;;;;;;6.97;4.57;;;8.80;99.90;;;;;;5015290;28;20666;-77
2022/09/22 00:39:52;;;;;;;5.57;4.20;;;8.80;99.90;;;;;;5014841;28;20223;-75
2022/09/22 00:42:19;;;;;;;6.27;4.37;;;8.80;99.90;;;;;;5015333;28;20617;-75
2022/09/22 00:44:48;;;;;;;6.20;4.37;;;8.80;99.90;;;;;;5014894;28;20204;-76
2022/09/22 00:47:26;;;;;;;5.53;4.27;;;8.80;99.90;;;;;;5014944;28;20207;-75
2022/09/22 00:49:57;;;;;;;8.00;4.33;;;8.80;99.90;;;;;;5015084;28;20226;-75
2022/09/22 00:52:28;;;;;;;5.53;3.90;;;8.80;99.90;;;;;;5014936;28;20571;-75
2022/09/22 00:55:00;;;;;;;4.53;3.67;;;8.80;99.90;;;;;;5014887;28;20302;-75
2022/09/22 00:57:31;;;;;;;5.53;4.00;;;8.70;99.90;;;;;;5014696;28;20211;-76
2022/09/22 01:00:01;;;;;;;4.50;3.97;;;8.70;99.90;;;;;;5014896;28;20249;-75
2022/09/22 01:02:28;;;;;;;7.47;4.50;;;8.70;99.90;;;;;;5015434;28;20195;-75
2022/09/22 01:04:55;;;;;;;5.67;4.40;;;8.70;99.90;;;;;;5014025;28;20212;-74
2022/09/22 01:07:24;;;;;;;6.83;4.40;;;8.60;99.90;;;;;;5014905;28;20587;-75
2022/09/22 01:09:52;;;;;;;5.00;3.80;;;8.60;99.90;;;;;;5014010;28;20251;-75
2022/09/22 01:12:19;;;;;;;6.50;4.33;;;8.60;99.90;;;;;;5014980;28;20740;-75
2022/09/22 01:15:11;;;;;;;5.00;3.80;;;8.50;99.90;;;;;;5014598;28;20207;-74
2022/09/22 01:17:49;;;;;;;4.67;4.03;;;8.50;99.90;;;;;;5015105;28;20246;-74
2022/09/22 01:20:46;;;;;;;5.13;4.00;;;8.50;99.90;;;;;;5014656;28;20190;-74
2022/09/22 01:23:55;;;;;;;5.23;4.20;;;8.50;99.90;;;;;;5013821;28;20203;-75
2022/09/22 01:26:49;;;;;;;4.70;4.20;;;8.50;99.90;;;;;;5014747;28;20209;-76
2022/09/22 01:29:44;;;;;;;5.33;3.87;;;8.50;99.90;;;;;;5014111;28;20223;-75
2022/09/22 01:32:17;;;;;;;6.40;4.40;;;8.50;99.90;;;;;;5026523;28;20707;-75
2022/09/22 01:34:51;;;;;;;4.00;3.60;;;8.40;99.90;;;;;;5033928;28;20202;-76
2022/09/22 01:37:24;;;;;;;4.93;4.27;;;8.40;99.90;;;;;;5034096;28;20499;-75
2022/09/22 01:39:55;;;;;;;4.30;3.87;;;8.40;99.90;;;;;;5028518;28;20199;-75
2022/09/22 01:42:30;;;;;;;5.80;4.13;;;8.40;99.90;;;;;;5014227;28;20207;-75
2022/09/22 01:45:01;;;;;;;5.90;4.37;;;8.30;99.90;;;;;;5013926;28;20291;-75
2022/09/22 01:47:39;;;;;;;3.83;3.30;;;8.30;99.90;;;;;;5014100;28;20195;-75
2022/09/22 01:50:10;;;;;;;5.57;4.03;;;8.30;99.90;;;;;;5014161;28;20290;-75
2022/09/22 01:52:40;;;;;;;6.67;4.23;;;8.30;99.90;;;;;;5014288;28;20202;-75
2022/09/22 01:55:12;;;;;;;4.77;4.13;;;8.30;99.90;;;;;;5013355;28;20230;-75
2022/09/22 01:57:47;;;;;;;5.90;3.93;;;8.30;99.90;;;;;;5013711;28;20223;-75
2022/09/22 02:00:14;;;;;;;4.77;3.90;;;8.30;99.90;;;;;;5013867;28;20630;-75
2022/09/22 02:02:49;;;;;;;5.07;4.27;;;8.30;99.90;;;;;;5014103;28;20548;-75
2022/09/22 02:05:22;;;;;;;5.77;4.67;;;8.30;99.90;;;;;;5013406;28;20207;-75
2022/09/22 02:07:52;;;;;;;4.73;4.20;;;8.30;99.90;;;;;;5013577;28;20218;-75
2022/09/22 02:10:23;;;;;;;11.47;5.07;;;8.30;99.90;;;;;;5013634;28;20207;-75
2022/09/22 02:12:51;;;;;;;6.77;4.37;;;8.30;99.90;;;;;;5013167;28;20286;-75
2022/09/22 02:18:10;;;;;;;5.47;4.10;;;8.20;99.90;;;;;;5013356;28;20210;-75
2022/09/22 02:20:37;;;;;;;5.67;3.97;;;8.20;99.90;;;;;;5013448;28;20210;-75
2022/09/22 02:23:05;;;;;;;5.60;4.07;;;8.20;99.90;;;;;;5013226;28;20191;-75
2022/09/22 02:25:32;;;;;;;6.10;4.47;;;8.20;99.90;;;;;;5013102;28;20492;-75
2022/09/22 02:27:59;;;;;;;5.10;4.60;;;8.20;99.90;;;;;;5013251;28;20534;-75
2022/09/22 02:30:27;;;;;;;4.63;4.10;;;8.20;99.90;;;;;;5024167;28;20293;-75
2022/09/22 02:32:56;;;;;;;5.40;4.60;;;8.10;99.90;;;;;;5032396;28;20194;-75
2022/09/22 02:35:29;;;;;;;6.07;4.10;;;8.10;99.90;;;;;;5032860;28;20209;-75
2022/09/22 02:38:02;;;;;;;4.73;4.23;;;8.10;99.90;;;;;;5016714;28;20227;-75
2022/09/22 02:40:36;;;;;;;4.83;4.20;;;8.10;99.90;;;;;;5012561;28;20188;-75
2022/09/22 02:43:08;;;;;;;7.07;4.50;;;8.10;99.90;;;;;;5013013;28;20191;-75
2022/09/22 02:45:44;;;;;;;5.27;4.57;;;8.10;99.90;;;;;;5013140;28;20200;-75
2022/09/22 02:48:17;;;;;;;5.23;4.50;;;8.10;99.90;;;;;;5012622;28;20193;-75
2022/09/22 02:50:46;;;;;;;5.17;3.83;;;8.10;99.90;;;;;;5012873;28;20621;-74
2022/09/22 02:53:15;;;;;;;5.17;4.10;;;8.10;99.90;;;;;;5012936;28;20302;-75
2022/09/22 02:55:43;;;;;;;5.77;4.20;;;8.00;99.90;;;;;;5012367;28;20199;-75
2022/09/22 02:58:10;;;;;;;5.20;4.60;;;8.10;99.90;;;;;;5012919;28;20198;-76
2022/09/22 03:00:36;;;;;;;6.43;4.80;;;8.00;99.90;;;;;;5012393;28;20285;-75
2022/09/22 03:03:04;;;;;;;5.03;4.53;;;8.00;99.90;;;;;;5012579;28;20235;-75
2022/09/22 03:05:31;;;;;;;5.97;4.63;;;8.00;99.90;;;;;;5012652;28;20530;-75
2022/09/22 03:07:59;;;;;;;5.30;4.07;;;8.00;99.90;;;;;;5011957;28;20195;-75
2022/09/22 03:10:26;;;;;;;4.47;4.07;;;8.00;99.90;;;;;;5012944;28;20313;-75
2022/09/22 03:12:53;;;;;;;5.17;4.20;;;7.90;99.90;;;;;;5012895;28;20203;-75
2022/09/22 03:15:20;;;;;;;5.17;4.17;;;7.90;99.90;;;;;;5012162;28;20261;-76
2022/09/22 03:17:46;;;;;;;4.80;4.30;;;7.90;99.90;;;;;;5012420;28;20542;-76
2022/09/22 03:20:14;;;;;;;5.00;4.30;;;7.90;99.90;;;;;;5012536;28;20550;-75
2022/09/22 03:22:42;;;;;;;5.53;4.23;;;7.90;99.90;;;;;;5012228;28;20685;-75
2022/09/22 03:25:11;;;;;;;5.07;4.00;;;7.90;99.90;;;;;;5012112;28;20787;-75
2022/09/22 03:27:38;;;;;;;5.03;4.53;;;7.90;99.90;;;;;;5012466;28;20194;-75
2022/09/22 03:30:07;;;;;;;6.03;4.30;;;7.90;99.90;;;;;;5011594;28;20611;-75
2022/09/22 03:32:35;;;;;;;4.87;4.30;;;7.90;99.90;;;;;;5012152;28;20473;-75
2022/09/22 03:35:02;;;;;;;5.37;4.30;;;7.90;99.90;;;;;;5012432;28;20207;-75
2022/09/22 03:37:29;;;;;;;5.83;4.40;;;7.90;99.90;;;;;;5012114;28;20219;-75
2022/09/22 03:39:56;;;;;;;6.03;4.70;;;7.90;99.90;;;;;;5012083;28;20290;-75
2022/09/22 03:42:24;;;;;;;5.67;4.50;;;7.90;99.90;;;;;;5012198;28;20622;-75
2022/09/22 03:44:51;;;;;;;4.90;3.77;;;7.90;99.90;;;;;;5011803;28;20203;-75
2022/09/22 03:47:18;;;;;;;6.37;4.27;;;7.90;99.90;;;;;;5011910;28;20659;-75
2022/09/22 03:49:45;;;;;;;4.27;3.87;;;7.90;99.90;;;;;;5012078;28;20207;-74
2022/09/22 03:52:12;;;;;;;4.87;4.30;;;7.90;99.90;;;;;;5012312;28;20195;-75
2022/09/22 03:54:39;;;;;;;4.37;3.80;;;7.80;99.90;;;;;;5011577;28;20195;-75
2022/09/22 03:57:06;;;;;;;4.93;4.40;;;7.80;99.90;;;;;;5012077;28;20223;-76
2022/09/22 03:59:34;;;;;;;6.67;4.23;;;7.80;99.90;;;;;;5012360;28;20294;-76
2022/09/22 04:02:03;;;;;;;5.43;4.20;;;7.80;99.90;;;;;;5011862;28;20286;-76
2022/09/22 04:04:31;;;;;;;5.57;4.03;;;7.80;99.90;;;;;;5011728;28;20207;-75
2022/09/22 04:06:58;;;;;;;5.40;4.20;;;7.80;99.90;;;;;;5012045;28;20575;-75
2022/09/22 04:09:25;;;;;;;4.57;4.00;;;7.80;99.90;;;;;;5011478;28;20613;-75
2022/09/22 04:11:51;;;;;;;6.07;3.93;;;7.80;99.90;;;;;;5011687;28;20203;-75
2022/09/22 04:14:18;;;;;;;6.77;5.10;;;7.80;99.90;;;;;;5012117;28;20803;-75
2022/09/22 04:16:47;;;;;;;5.60;3.87;;;7.80;99.90;;;;;;5012088;28;20305;-75
2022/09/22 04:19:14;;;;;;;5.53;3.93;;;7.80;99.90;;;;;;5012019;28;20202;-75
2022/09/22 04:21:41;;;;;;;5.67;4.20;;;7.80;99.90;;;;;;5011553;28;20747;-75
2022/09/22 04:24:10;;;;;;;5.20;4.50;;;7.80;99.90;;;;;;5011910;28;20207;-75
2022/09/22 04:26:37;;;;;;;4.93;3.97;;;7.80;99.90;;;;;;5011944;28;20223;-76
2022/09/22 04:29:04;;;;;;;4.50;4.10;;;7.70;99.90;;;;;;5011468;28;20254;-75
2022/09/22 04:31:31;;;;;;;4.50;3.90;;;7.80;99.90;;;;;;5011955;28;20199;-75
2022/09/22 04:33:59;;;;;;;5.03;4.30;;;7.70;99.90;;;;;;5011393;28;20287;-75
2022/09/22 04:36:26;;;;;;;6.27;4.40;;;7.70;99.90;;;;;;5011621;28;20298;-75
2022/09/22 04:38:54;;;;;;;5.73;4.13;;;7.70;99.90;;;;;;5011608;28;20204;-75
2022/09/22 04:41:21;;;;;;;4.40;3.90;;;7.70;99.90;;;;;;5011372;28;20200;-75
2022/09/22 04:43:47;;;;;;;4.00;3.60;;;7.70;99.90;;;;;;5011556;28;20290;-75
2022/09/22 04:46:14;;;;;;;3.57;3.27;;;7.70;99.90;;;;;;5011779;28;20262;-75
2022/09/22 04:48:41;;;;;;;4.70;3.67;;;7.70;99.90;;;;;;5011463;28;20739;-75
2022/09/22 04:51:09;;;;;;;6.00;4.23;;;7.60;99.90;;;;;;5011465;28;20214;-74
2022/09/22 04:53:36;;;;;;;4.40;4.00;;;7.60;99.90;;;;;;5011287;28;20294;-75
2022/09/22 04:56:03;;;;;;;4.80;3.90;;;7.60;99.90;;;;;;5011793;28;20204;-75
2022/09/22 04:58:30;;;;;;;5.93;4.30;;;7.60;99.90;;;;;;5010911;28;20338;-74
2022/09/22 05:01:02;;;;;;;5.23;4.23;;;7.60;99.90;;;;;;5014245;28;20207;-75
2022/09/22 05:03:29;;;;;;;5.30;4.43;;;7.60;99.90;;;;;;5014797;28;20461;-75
2022/09/22 05:05:56;;;;;;;4.27;3.80;;;7.60;99.90;;;;;;5014426;28;20200;-75
2022/09/22 05:08:25;;;;;;;5.60;4.20;;;7.60;99.90;;;;;;5014667;28;20234;-75
2022/09/22 05:10:52;;;;;;;5.23;4.23;;;7.60;99.90;;;;;;5015067;28;20509;-75
2022/09/22 05:13:19;;;;;;;5.47;4.07;;;7.60;99.90;;;;;;5014718;28;20211;-75
2022/09/22 05:15:46;;;;;;;5.80;4.17;;;7.60;99.90;;;;;;5014079;28;20266;-75
2022/09/22 05:18:13;;;;;;;5.93;4.37;;;7.60;99.90;;;;;;5014812;28;20285;-75
2022/09/22 05:20:40;;;;;;;4.57;4.17;;;7.60;99.90;;;;;;5015123;28;20199;-75
2022/09/22 05:23:07;;;;;;;4.33;3.93;;;7.60;99.90;;;;;;5014588;28;20207;-75
2022/09/22 05:25:35;;;;;;;5.60;4.10;;;7.60;99.90;;;;;;5014194;28;20298;-75
2022/09/22 05:28:02;;;;;;;6.10;4.13;;;7.60;99.90;;;;;;5014290;28;20662;-75
2022/09/22 05:30:29;;;;;;;6.27;4.33;;;7.60;99.90;;;;;;5014019;28;20603;-75
2022/09/22 05:32:56;;;;;;;5.60;4.23;;;7.60;99.90;;;;;;5014193;28;20599;-75
2022/09/22 05:35:25;;;;;;;6.93;4.77;;;7.60;99.90;;;;;;5013946;28;20239;-75
2022/09/22 05:37:53;;;;;;;6.47;4.63;;;7.60;99.90;;;;;;5014341;28;20225;-76
2022/09/22 05:40:22;;;;;;;5.73;4.60;;;7.50;99.90;;;;;;5013771;28;20592;-75
2022/09/22 05:42:52;;;;;;;6.27;4.67;;;7.60;99.90;;;;;;5013623;28;20203;-75
2022/09/22 05:45:20;;;;;;;6.80;5.33;;;7.60;99.90;;;;;;5017817;28;20289;-75
2022/09/22 05:47:47;;;;;;;5.87;4.80;;;7.60;99.90;;;;;;5019607;28;20202;-75
2022/09/22 05:50:16;;;;;;;6.13;4.77;;;7.60;99.90;;;;;;5014209;28;20207;-75
2022/09/22 05:52:44;;;;;;;5.60;5.03;;;7.60;99.90;;;;;;5013902;28;20211;-75
2022/09/22 05:55:12;;;;;;;6.83;6.03;;;7.60;99.90;;;;;;5014455;28;20203;-75
2022/09/22 05:57:39;;;;;;;5.43;4.93;;;7.60;99.90;;;;;;5013628;28;20223;-75
2022/09/22 06:00:10;;;;;;;6.40;4.70;;;7.60;99.90;;;;;;5013603;28;20282;-74
2022/09/22 06:02:37;;;;;;;7.50;5.67;;;7.70;99.90;;;;;;5014002;28;20194;-75
2022/09/22 06:05:04;;;;;;;8.60;6.67;;;7.70;99.90;;;;;;5013680;28;20209;-75
2022/09/22 06:07:31;;;;;;;8.07;6.50;;;7.70;99.90;;;;;;5014493;28;20229;-75
2022/09/22 06:09:58;;;;;;;7.50;6.70;;;7.70;99.90;;;;;;5013423;28;20259;-76
2022/09/22 06:12:25;;;;;;;9.00;6.83;;;7.70;99.90;;;;;;5012451;28;20560;-75
2022/09/22 06:14:52;;;;;;;7.90;6.23;;;7.80;99.90;;;;;;5013149;28;20594;-75
2022/09/22 06:17:22;;;;;;;8.70;6.60;;;7.80;99.90;;;;;;5013778;28;20657;-75
2022/09/22 06:19:49;;;;;;;8.33;7.43;;;7.80;99.90;;;;;;5013227;28;20290;-75
2022/09/22 06:22:16;;;;;;;9.53;7.07;;;7.80;99.90;;;;;;5013732;28;20564;-75
2022/09/22 06:24:43;;;;;;;9.37;7.27;;;7.90;99.90;;;;;;5013248;28;20207;-75
2022/09/22 06:27:10;;;;;;;10.73;8.50;;;7.90;99.90;;;;;;5013023;28;20221;-75
2022/09/22 06:29:37;;;;;;;12.07;8.67;;;8.00;99.90;;;;;;5013176;28;20215;-75
2022/09/22 06:32:06;;;;;;;9.80;8.60;;;8.00;99.90;;;;;;5013017;28;20231;-75
2022/09/22 06:34:35;;;;;;;9.77;8.73;;;8.00;99.90;;;;;;5012727;28;20289;-74
2022/09/22 06:37:01;;;;;;;11.77;9.10;;;8.10;99.90;;;;;;5013199;28;20207;-76
2022/09/22 06:39:29;;;;;;;13.97;9.83;;;8.10;99.90;;;;;;5012194;28;20303;-77
2022/09/22 06:41:56;;;;;;;14.93;10.27;;;8.20;99.90;;;;;;5013088;28;20204;-76
2022/09/22 06:44:24;;;;;;;16.23;12.40;;;8.20;99.90;;;;;;5013148;28;20191;-76
2022/09/22 06:46:51;;;;;;;15.47;11.83;;;8.20;99.90;;;;;;5015741;28;20233;-76
2022/09/22 06:49:18;;;;;;;18.57;13.70;;;8.30;99.90;;;;;;5032827;28;20807;-76
2022/09/22 06:51:48;;;;;;;20.67;17.67;;;8.40;99.90;;;;;;5012454;28;20626;-76
2022/09/22 06:54:15;;;;;;;21.83;18.50;;;8.50;99.90;;;;;;5012681;28;20519;-76
2022/09/22 06:56:42;;;;;;;22.67;18.17;;;8.60;99.90;;;;;;5019359;28;20599;-76
2022/09/22 06:59:11;;;;;;;22.40;17.80;;;8.70;99.90;;;;;;5032261;28;20233;-77
2022/09/22 07:01:39;;;;;;;26.67;20.50;;;8.70;99.90;;;;;;5019792;28;20207;-76
2022/09/22 07:04:06;;;;;;;24.83;19.27;;;8.80;99.90;;;;;;5010844;28;20213;-76
2022/09/22 07:06:35;;;;;;;23.10;18.67;;;8.90;99.90;;;;;;5030195;28;20206;-75
2022/09/22 07:09:05;;;;;;;22.77;19.53;;;8.90;99.90;;;;;;5029401;28;20718;-76
2022/09/22 07:11:31;;;;;;;23.47;20.97;;;9.00;99.90;;;;;;5028402;28;20224;-76
2022/09/22 07:13:59;;;;;;;28.30;22.37;;;9.10;99.90;;;;;;5030002;28;20207;-76
2022/09/22 07:16:26;;;;;;;24.40;21.80;;;9.20;99.90;;;;;;5027576;28;20214;-75
2022/09/22 07:18:57;;;;;;;23.77;20.57;;;9.30;99.90;;;;;;5029172;28;20226;-76
2022/09/22 07:21:26;;;;;;;24.77;22.03;;;9.30;99.90;;;;;;5029342;28;20658;-76
2022/09/22 07:23:55;;;;;;;28.57;23.87;;;9.40;99.90;;;;;;5029546;28;20724;-76
2022/09/22 07:26:27;;;;;;;24.20;21.20;;;9.50;99.90;;;;;;5028078;28;20574;-76
2022/09/22 07:28:58;;;;;;;27.23;21.67;;;9.50;99.90;;;;;;5028823;28;20502;-77
2022/09/22 07:31:26;;;;;;;24.17;21.30;;;9.60;99.90;;;;;;5029177;28;20225;-76
2022/09/22 07:33:53;;;;;;;25.63;22.43;;;9.70;99.90;;;;;;5027476;28;20218;-76
2022/09/22 07:36:22;;;;;;;26.17;21.90;;;9.70;99.90;;;;;;5029545;28;20226;-76
2022/09/22 07:38:50;;;;;;;24.27;21.03;;;9.80;99.90;;;;;;5028833;28;20296;-76
2022/09/22 07:41:21;;;;;;;25.97;23.23;;;9.90;99.90;;;;;;5027654;28;20237;-76
2022/09/22 07:43:52;;;;;;;28.07;23.00;;;10.00;99.90;;;;;;5023122;28;20230;-76
2022/09/22 07:46:19;;;;;;;33.27;26.20;;;10.10;99.90;;;;;;5029379;28;20213;-76
2022/09/22 07:48:46;;;;;;;30.97;25.00;;;10.10;99.90;;;;;;5028406;28;20760;-76
2022/09/22 07:51:18;;;;;;;29.50;26.23;;;10.20;99.90;;;;;;5024662;28;20627;-77
2022/09/22 07:53:46;;;;;;;29.33;23.13;;;10.30;99.90;;;;;;5029111;28;20202;-77
2022/09/22 07:56:15;;;;;;;23.40;19.77;;;10.40;99.90;;;;;;5027193;28;20995;-76
2022/09/22 07:58:47;;;;;;;26.87;21.40;;;10.50;99.90;;;;;;5030488;28;20215;-77
2022/09/22 08:01:15;;;;;;;24.43;21.33;;;10.60;99.90;;;;;;5015794;28;20311;-78
2022/09/22 08:03:44;;;;;;;23.83;19.77;;;10.70;99.90;;;;;;5011691;28;20195;-77
2022/09/22 08:06:11;;;;;;;21.47;19.27;;;10.80;99.90;;;;;;5011765;28;20206;-77
2022/09/22 08:08:41;;;;;;;19.30;17.13;;;11.00;99.90;;;;;;5011986;28;20223;-77
2022/09/22 08:11:09;;;;;;;21.10;18.83;;;11.10;99.90;;;;;;5011459;28;20203;-77
2022/09/22 08:13:37;;;;;;;18.63;15.67;;;11.20;99.90;;;;;;5012930;28;20199;-77
2022/09/22 08:16:05;;;;;;;17.43;15.03;;;11.30;99.90;;;;;;5030095;28;20206;-76
2022/09/22 08:18:35;;;;;;;20.03;15.87;;;11.50;99.90;;;;;;5029498;28;20215;-77
2022/09/22 08:21:03;;;;;;;15.90;13.20;;;11.60;99.90;;;;;;5011362;28;20250;-77
2022/09/22 08:23:31;;;;;;;15.87;13.50;;;11.70;99.90;;;;;;5011710;28;20210;-78
2022/09/22 08:26:02;;;;;;;16.93;13.17;;;11.90;99.90;;;;;;5011129;28;20204;-77
2022/09/22 08:28:30;;;;;;;16.47;13.73;;;12.10;99.90;;;;;;5011171;28;20219;-77
2022/09/22 08:30:57;;;;;;;12.93;11.43;;;12.20;99.90;;;;;;5017287;28;20206;-77
2022/09/22 08:33:24;;;;;;;12.50;11.20;;;12.40;99.90;;;;;;5030234;28;20234;-77
2022/09/22 08:35:54;;;;;;;15.13;11.57;;;12.60;99.90;;;;;;5030685;28;20257;-77
2022/09/22 08:38:22;;;;;;;15.73;10.40;;;12.90;99.90;;;;;;5014345;28;20309;-77
2022/09/22 08:40:59;;;;;;;10.13;8.87;;;13.00;99.90;;;;;;5022314;28;20214;-77
2022/09/22 08:43:29;;;;;;;10.37;8.50;;;13.30;99.90;;;;;;5032167;28;20299;-77
2022/09/22 08:45:57;;;;;;;10.93;7.43;;;13.50;99.90;;;;;;5015181;28;20199;-79
2022/09/22 08:54:03;;;;;;;8.33;7.30;;;14.10;99.90;;;;;;5033998;28;20198;-76
2022/09/22 08:56:36;;;;;;;11.37;7.53;;;14.30;99.90;;;;;;5034670;28;20611;-78
2022/09/22 08:59:09;;;;;;;9.40;7.27;;;14.40;99.90;;;;;;5023423;28;20215;-78
2022/09/22 09:01:59;;;;;;;6.37;5.40;;;14.50;99.90;;;;;;5014608;28;20206;-77
2022/09/22 09:04:49;;;;;;;8.40;6.70;;;14.60;99.90;;;;;;5014662;28;20203;-77
2022/09/22 09:07:24;;;;;;;7.60;6.27;;;14.80;99.90;;;;;;5014468;28;20502;-79
2022/09/22 09:10:03;;;;;;;10.73;5.77;;;14.90;99.90;;;;;;5013750;28;20237;-77
2022/09/22 09:13:02;;;;;;;6.07;4.70;;;15.00;99.90;;;;;;5014160;28;20290;-78
2022/09/22 09:15:55;;;;;;;5.53;4.27;;;15.10;99.90;;;;;;5002663;28;20207;-78
2022/09/22 09:18:28;;;;;;;8.53;5.57;;;15.20;99.90;;;;;;5015608;28;20242;-78
2022/09/22 09:20:58;;;;;;;7.00;5.37;;;15.30;99.90;;;;;;5029626;28;20298;-78
2022/09/22 09:23:33;;;;;;;9.87;4.93;;;15.40;99.90;;;;;;5013553;28;20608;-78
2022/09/22 09:26:02;;;;;;;6.87;4.80;;;15.50;99.30;;;;;;5013219;28;20211;-79
2022/09/22 09:28:34;;;;;;;6.97;4.50;;;15.60;98.10;;;;;;5013166;28;20215;-77
2022/09/22 09:31:10;;;;;;;9.17;5.03;;;15.80;99.10;;;;;;5013906;28;20207;-77
2022/09/22 09:33:43;;;;;;;8.83;4.97;;;16.00;83.10;;;;;;5014119;28;20261;-77
2022/09/22 09:36:14;;;;;;;6.88;4.47;;;16.10;78.60;;;;;;5013569;28;20294;-78
2022/09/22 09:38:50;;;;;;;11.52;6.38;;;16.30;44.90;;;;;;5013485;28;20314;-77
2022/09/22 09:41:30;;;;;;;7.07;4.95;;;16.50;12.10;;;;;;5014034;28;20206;-78
2022/09/22 09:43:57;;;;;;;7.25;5.35;;;16.70;1.00;;;;;;5013462;28;20686;-77
2022/09/22 09:46:35;;;;;;;4.80;3.97;;;16.90;1.00;;;;;;5016648;28;20282;-78
2022/09/22 09:49:06;;;;;;;7.30;4.93;;;17.10;14.50;;;;;;5022088;28;20209;-78
2022/09/22 09:51:35;;;;;;;5.57;4.18;;;17.30;99.90;;;;;;5024587;28;20206;-77
2022/09/22 09:54:08;;;;;;;5.72;4.25;;;17.50;1.00;;;;;;5022055;28;20215;-77
2022/09/22 09:56:36;;;;;;;4.53;3.33;;;17.80;99.90;;;;;;5012449;28;20222;-76
2022/09/22 10:01:53;;;;;;;7.05;4.88;;;18.10;78.30;;;;;;5013635;28;20206;-77
2022/09/22 10:04:30;;;;;;;8.38;4.38;;;18.20;77.90;;;;;;5020790;28;20233;-77
2022/09/22 10:07:11;;;;;;;5.45;3.40;;;18.30;99.90;;;;;;5032659;28;20233;-77
2022/09/22 10:09:40;;;;;;;4.00;3.03;;;18.40;99.90;;;;;;5025252;28;20238;-78
2022/09/22 10:12:22;;;;;;;6.10;4.13;;;18.50;13.30;;;;;;5013230;28;20195;-77
2022/09/22 10:14:51;;;;;;;6.82;4.30;;;18.60;1.00;;;;;;5013424;28;20245;-78
2022/09/22 10:17:21;;;;;;;5.45;4.07;;;18.70;1.00;;;;;;5012101;28;20511;-78
2022/09/22 10:19:49;;;;;;;5.63;4.25;;;18.70;1.00;;;;;;5012399;28;20234;-78
2022/09/22 10:22:22;;;;;;;6.60;4.10;;;18.80;1.00;;;;;;5012954;28;20243;-77
2022/09/22 10:24:57;;;;;;;6.95;4.15;;;18.90;99.90;;;;;;5012665;28;20569;-78
2022/09/22 10:27:25;;;;;;;11.40;4.63;;;18.90;99.90;;;;;;5012914;28;20562;-78
2022/09/22 10:30:12;;;;;;;5.35;3.78;;;18.80;98.10;;;;;;5012308;28;20206;-77
2022/09/22 10:32:40;;;;;;;7.57;3.53;;;19.00;99.90;;;;;;5012080;28;20270;-78
2022/09/22 10:35:26;;;;;;;5.57;3.25;;;19.20;91.70;;;;;;5011931;28;20544;-78
2022/09/22 10:37:58;;;;;;;7.03;3.15;;;19.40;1.00;;;;;;5012112;28;20218;-78
2022/09/22 10:40:29;;;;;;;4.25;3.20;;;19.60;1.00;;;;;;5012351;28;20703;-79
2022/09/22 10:42:58;;;;;;;5.65;3.80;;;19.90;1.00;;;;;;5012845;28;20231;-78
2022/09/22 10:45:38;;;;;;;6.13;3.75;;;19.70;1.00;;;;;;5012526;28;20257;-79
2022/09/22 10:48:10;;;;;;;5.03;3.17;;;19.80;1.00;;;;;;5019066;28;20202;-76
2022/09/22 10:50:50;;;;;;;4.25;2.70;;;19.80;1.00;;;;;;5033171;28;20314;-80
2022/09/22 10:53:36;;;;;;;5.10;3.15;;;19.90;1.00;;;;;;5032646;28;20201;-78
2022/09/22 10:56:13;;;;;;;5.90;3.13;;;20.00;1.00;;;;;;5030692;28;20281;-78
2022/09/22 10:59:04;;;;;;;6.28;3.58;;;20.20;1.00;;;;;;5032076;28;20260;-79
2022/09/22 11:01:42;;;;;;;4.63;2.55;;;19.90;1.00;;;;;;4982434;28;20531;-79
2022/09/22 11:04:24;;;;;;;5.38;3.47;;;20.00;1.00;;;;;;5013389;28;20200;-80
2022/09/22 11:13:10;;;;;;;5.82;2.40;;;20.20;1.00;;;;;;4932348;29;20226;-78
2022/09/22 11:15:51;;;;;;;7.10;2.97;;;20.30;1.00;;;;;;4988079;28;20221;-78
2022/09/22 11:18:45;;;;;;;5.70;2.92;;;20.40;1.00;;;;;;5012903;28;20303;-78
2022/09/22 11:21:26;;;;;;;7.28;3.00;;;20.40;1.00;;;;;;5011998;28;20237;-80
2022/09/22 11:24:10;;;;;;;5.45;3.22;;;20.40;1.00;;;;;;5012052;28;20203;-80
2022/09/22 11:26:47;;;;;;;5.97;3.20;;;20.30;1.00;;;;;;5012830;28;20195;-80
2022/09/22 11:29:40;;;;;;;5.80;2.97;;;19.90;1.00;;;;;;5011289;28;20226;-76
2022/09/22 11:32:23;;;;;;;8.25;3.00;;;20.00;1.00;;;;;;5011660;28;20238;-78
2022/09/22 11:35:06;;;;;;;9.20;3.20;;;20.10;1.00;;;;;;5011710;28;20196;-79
2022/09/22 11:37:45;;;;;;;6.05;2.92;;;20.10;1.00;;;;;;5012324;28;20841;-78
2022/09/22 11:40:26;;;;;;;6.15;3.38;;;20.20;1.00;;;;;;5011815;28;20211;-79
2022/09/22 11:43:02;;;;;;;4.70;3.35;;;20.20;1.00;;;;;;5011905;28;20309;-78
2022/09/22 11:45:47;;;;;;;7.32;3.65;;;20.30;1.00;;;;;;5011908;28;20207;-79
2022/09/22 11:48:26;;;;;;;8.20;3.90;;;20.00;1.00;;;;;;5011953;28;20202;-79
2022/09/22 11:51:10;;;;;;;2.67;2.28;;;19.90;1.00;;;;;;5011937;28;20199;-79
2022/09/22 11:53:58;;;;;;;4.82;3.10;;;20.20;1.00;;;;;;5012262;28;20191;-79
2022/09/22 11:56:38;;;;;;;8.95;2.97;;;20.20;1.00;;;;;;5011532;28;20202;-79
2022/09/22 11:59:14;;;;;;;3.70;2.20;;;20.40;1.00;;;;;;5012193;28;20215;-78
2022/09/22 12:01:43;;;;;;;7.43;2.75;;;20.70;1.00;;;;;;5012527;28;20198;-78
2022/09/22 12:04:20;;;;;;;3.85;2.50;;;20.80;1.00;;;;;;5011281;28;20510;-78
2022/09/22 12:06:51;;;;;;;5.00;2.83;;;20.60;1.00;;;;;;5012349;28;20196;-79
2022/09/22 12:09:30;;;;;;;5.15;2.10;;;20.70;1.00;;;;;;5012262;28;20239;-78
2022/09/22 12:11:58;;;;;;;3.55;2.13;;;20.60;1.00;;;;;;5015873;28;20496;-78
2022/09/22 12:14:27;;;;;;;4.35;1.90;;;20.80;1.00;;;;;;5016254;28;20190;-78
2022/09/22 12:17:04;;;;;;;4.05;2.35;;;20.80;1.00;;;;;;5015363;28;20195;-79
2022/09/22 12:19:40;;;;;;;6.30;2.60;;;20.70;1.00;;;;;;5015500;28;20321;-79
2022/09/22 12:22:15;;;;;;;5.22;2.28;;;20.60;1.00;;;;;;5015683;28;20281;-78
2022/09/22 12:24:45;;;;;;;5.15;2.20;;;20.80;1.00;;;;;;5015413;28;20191;-80
2022/09/22 12:27:21;;;;;;;6.30;2.78;;;21.00;99.90;;;;;;5015596;28;20278;-78
2022/09/22 12:29:55;;;;;;;4.45;2.45;;;20.90;99.90;;;;;;5015801;28;20224;-79
2022/09/22 12:32:25;;;;;;;3.58;1.95;;;20.80;99.90;;;;;;5014671;28;20284;-80
2022/09/22 12:34:56;;;;;;;2.20;2.00;;;20.60;99.90;;;;;;5015819;28;20192;-78
2022/09/22 12:37:28;;;;;;;7.82;2.53;;;20.30;99.90;;;;;;5015351;28;20583;-78
2022/09/22 12:40:00;;;;;;;4.72;2.33;;;20.20;99.90;;;;;;5031879;28;20577;-79
2022/09/22 12:42:32;;;;;;;3.97;2.40;;;20.20;1.00;;;;;;5028117;28;20201;-79
2022/09/22 12:45:07;;;;;;;2.28;1.63;;;20.40;1.00;;;;;;5015101;28;20191;-79
2022/09/22 12:47:37;;;;;;;6.45;2.28;;;20.50;1.00;;;;;;5015044;28;20191;-78
2022/09/22 12:50:33;;;;;;;5.13;2.25;;;20.70;1.00;;;;;;5015067;28;20752;-78
2022/09/22 12:53:03;;;;;;;4.65;2.17;;;20.80;99.90;;;;;;5014991;28;20198;-78
2022/09/22 12:55:37;;;;;;;3.42;1.80;;;20.70;1.00;;;;;;5014971;28;20203;-77
2022/09/22 12:58:33;;;;;;;4.95;2.60;;;20.70;1.00;;;;;;5015424;28;20206;-78
2022/09/22 13:01:32;;;;;;;5.20;2.45;;;20.70;99.90;;;;;;5014605;28;20230;-78
2022/09/22 13:04:17;;;;;;;4.53;2.65;;;20.50;1.00;;;;;;5015148;28;20191;-78
2022/09/22 13:07:00;;;;;;;3.33;2.97;;;20.60;99.90;;;;;;5014757;28;20270;-78
2022/09/22 13:09:29;;;;;;;4.35;2.60;;;20.70;99.90;;;;;;5014387;28;20231;-76
2022/09/22 13:12:26;;;;;;;5.10;2.45;;;20.70;99.90;;;;;;5015069;28;20200;-77
2022/09/22 13:14:59;;;;;;;2.55;2.05;;;20.80;99.90;;;;;;5026083;28;20617;-80
2022/09/22 13:17:41;;;;;;;5.57;3.20;;;20.70;99.90;;;;;;5034760;28;20195;-77
2022/09/22 13:20:15;;;;;;;6.43;3.75;;;20.70;99.90;;;;;;5027425;28;20207;-77
2022/09/22 13:22:43;;;;;;;4.07;3.50;;;20.40;99.90;;;;;;5014817;28;20198;-77
2022/09/22 13:25:22;;;;;;;4.10;3.08;;;20.10;99.90;;;;;;5014970;28;20203;-78
2022/09/22 13:28:02;;;;;;;6.35;3.90;;;20.20;1.00;;;;;;5013890;28;20310;-77
2022/09/22 13:30:31;;;;;;;4.35;2.55;;;20.20;99.90;;;;;;5014492;28;20493;-76